If you wish to contribute or participate in the discussions about articles you are invited to join SKYbrary as a registered user

 Actions

Akure Airport

From SKYbrary Wiki

DNAK
Airport
ICAO: DNAK – IATA: AKR
Summary
Name Akure Airport
Region Africa
Territory Nigeria NG.gif
Location Saribi, Ondo State
Serving Akure
Elevation 337.718 m
1,108 ft337.718 m
Coordinates 7° 14' 55.00" N, 5° 18' 5.00" E
Runways
Designator Length Width Surface ROPS
3/21 2803 m9,196.194 ft
45 m147.638 ft
ASP /


METAR
Observation DNAK 050500Z 00000KT 9999 SCT007 22/21 Q1014
Station Akure Airport
Date/Time 05 July 2020 05:00:00
Wind direction
Wind speed 00 kts
Lowest cloud amount scattered clouds
Temperature 22°C
Dew point 21°C
Humidity 94%
QNH 1014 hPa
Weather condition n/a

Akure Airport is an airport serving Akure, the capital of Ondo State, Nigeria.

Climatology

Tropical savanna climate (Köppen climate classification Aw)

Maps

Terrain

Loading map...

Airport Layout

Loading map...


Accidents & Serious Incidents at or in vicinity of DNAK

None on SKYbrary